Time;durP1;ratioP1;P1;durP2;ratioP2;P2;SDS_P1;SDS_P2;PMS_P1;PMS_P2;Temp;Humidity;BMP_temperature;BMP_pressure;BME280_temperature;BME280_humidity;BME280_pressure;Samples;Min_cycle;Max_cycle;Signal;HPM_P1;HPM_P2
2022/05/25 00:01:54;;;;;;;7.63;2.83;;;;;;;12.61;100.00;100838.56;5032366;28;20095;-78
2022/05/25 00:04:21;;;;;;;7.53;2.38;;;;;;;12.58;100.00;100858.78;5030494;28;20115;-78
2022/05/25 00:06:48;;;;;;;5.50;2.00;;;;;;;12.55;100.00;100858.81;5035760;28;20068;-79
2022/05/25 00:09:15;;;;;;;4.00;2.10;;;;;;;12.49;100.00;100846.59;5037308;28;20571;-80
2022/05/25 00:11:41;;;;;;;6.30;2.45;;;;;;;12.43;100.00;100854.53;5039625;28;20073;-77
2022/05/25 00:14:09;;;;;;;7.88;2.40;;;;;;;12.38;100.00;100854.16;5036445;28;20063;-78
2022/05/25 00:16:35;;;;;;;5.05;2.28;;;;;;;12.32;100.00;100845.47;5032296;28;20692;-77
2022/05/25 00:21:48;;;;;;;5.40;2.38;;;;;;;12.26;100.00;100855.41;5039984;28;20498;-76
2022/05/25 00:24:14;;;;;;;7.25;2.75;;;;;;;12.26;100.00;100857.44;5044829;28;20135;-77
2022/05/25 00:26:41;;;;;;;6.55;2.63;;;;;;;12.20;100.00;100853.50;5043053;28;20080;-77
2022/05/25 00:29:07;;;;;;;4.65;2.40;;;;;;;12.18;100.00;100856.66;5047820;28;20126;-77
2022/05/25 00:31:35;;;;;;;4.78;2.25;;;;;;;12.12;100.00;100863.81;5046516;28;20088;-77
2022/05/25 00:34:02;;;;;;;8.30;2.55;;;;;;;12.12;100.00;100863.81;5042092;28;20057;-77
2022/05/25 00:36:29;;;;;;;7.30;2.28;;;;;;;12.05;100.00;100860.31;5036224;28;20545;-83
2022/05/25 00:38:55;;;;;;;4.90;2.30;;;;;;;12.07;100.00;100863.47;5045438;28;20089;-82
2022/05/25 00:41:24;;;;;;;7.03;2.60;;;;;;;12.04;100.00;100858.72;5042744;28;20513;-79
2022/05/25 00:43:51;;;;;;;11.05;2.47;;;;;;;11.99;100.00;100854.41;5041093;28;20085;-78
2022/05/25 00:46:19;;;;;;;6.07;2.45;;;;;;;11.97;100.00;100862.31;5043783;28;20489;-79
2022/05/25 00:48:56;;;;;;;8.88;2.60;;;;;;;11.91;100.00;100865.94;5043987;28;20068;-78
2022/05/25 00:51:30;;;;;;;4.55;2.35;;;;;;;11.92;100.00;100873.06;5041899;28;20059;-78
2022/05/25 00:54:02;;;;;;;5.28;2.20;;;;;;;11.84;100.00;100860.38;5038080;28;20049;-78
2022/05/25 00:56:31;;;;;;;7.05;2.72;;;;;;;11.83;100.00;100865.16;5039011;28;20132;-78
2022/05/25 00:59:07;;;;;;;4.38;2.38;;;;;;;11.84;100.00;100875.06;5037780;28;20080;-78
2022/05/25 01:01:34;;;;;;;4.82;2.67;;;;;;;11.80;100.00;100870.72;5043356;28;20050;-76
2022/05/25 01:04:00;;;;;;;6.97;2.42;;;;;;;11.75;100.00;100877.44;5038610;28;20045;-78
2022/05/25 01:06:55;;;;;;;8.93;2.63;;;;;;;11.77;100.00;100888.13;5036814;28;20566;-79
2022/05/25 01:09:40;;;;;;;6.95;2.92;;;;;;;11.74;100.00;100883.41;5039682;28;20144;-78
2022/05/25 01:12:29;;;;;;;8.32;2.58;;;;;;;11.66;100.00;100882.66;5035760;28;20049;-79
2022/05/25 01:15:07;;;;;;;3.97;2.28;;;;;;;11.62;100.00;100875.53;5043481;28;20048;-78
2022/05/25 01:18:01;;;;;;;6.22;2.70;;;;;;;11.63;100.00;100893.72;5039326;28;20049;-77
2022/05/25 01:20:41;;;;;;;9.25;3.13;;;;;;;11.60;100.00;100889.75;5046524;28;20127;-78
2022/05/25 01:23:22;;;;;;;11.75;3.80;;;;;;;11.54;100.00;100885.81;5040684;28;20050;-78
2022/05/25 01:25:57;;;;;;;11.52;3.17;;;;;;;11.52;100.00;100888.19;5041660;28;20536;-78
2022/05/25 01:28:57;;;;;;;7.28;2.78;;;;;;;11.46;100.00;100887.00;5037960;28;20517;-79
2022/05/25 01:31:37;;;;;;;10.43;3.67;;;;;;;11.46;100.00;100887.00;5043669;28;20059;-78
2022/05/25 01:34:31;;;;;;;8.20;3.40;;;;;;;11.42;100.00;100899.28;5032481;28;20079;-79
2022/05/25 01:37:13;;;;;;;10.13;3.03;;;;;;;11.40;100.00;100902.44;5046446;28;20041;-77
2022/05/25 01:39:47;;;;;;;9.30;3.10;;;;;;;11.38;100.00;100899.31;5040940;28;20087;-78
2022/05/25 01:42:27;;;;;;;9.20;3.92;;;;;;;11.36;100.00;100900.88;5049508;28;20110;-79
2022/05/25 01:45:01;;;;;;;9.25;3.42;;;;;;;11.36;100.00;100900.88;5041955;28;20060;-78
2022/05/25 01:47:32;;;;;;;11.32;3.95;;;;;;;11.31;100.00;100906.84;5044927;28;20049;-78
2022/05/25 01:50:05;;;;;;;6.55;3.05;;;;;;;11.30;100.00;100910.81;5031775;28;20049;-77
2022/05/25 01:52:35;;;;;;;9.07;3.10;;;;;;;11.27;100.00;100906.81;5041759;28;20510;-78
2022/05/25 01:55:07;;;;;;;8.38;3.30;;;;;;;11.26;100.00;100907.22;5049815;28;20390;-77
2022/05/25 01:57:37;;;;;;;9.98;3.58;;;;;;;11.23;100.00;100914.34;5030918;28;20061;-78
2022/05/25 02:00:06;;;;;;;10.20;3.38;;;;;;;11.23;100.00;100908.00;5043322;28;20065;-78
2022/05/25 02:05:20;;;;;;;7.68;3.47;;;;;;;11.15;100.00;100911.97;5030558;28;20152;-78
2022/05/25 02:07:55;;;;;;;8.98;3.83;;;;;;;11.12;100.00;100913.56;5035656;28;20058;-76
2022/05/25 02:10:31;;;;;;;11.65;3.67;;;;;;;11.10;100.00;100910.38;5040215;28;20501;-78
2022/05/25 02:13:18;;;;;;;;;;;;;;;11.12;100.00;100908.03;5038478;28;20574;-78
2022/05/25 02:16:06;;;;;;;9.55;3.70;;;;;;;11.12;100.00;100912.75;5044806;28;19927;-77
2022/05/25 02:18:39;;;;;;;10.13;3.75;;;;;;;11.08;100.00;100912.78;5042176;28;20053;-78
2022/05/25 02:21:24;;;;;;;7.28;3.67;;;;;;;11.03;100.00;100917.94;5042168;28;20166;-77
2022/05/25 02:23:56;;;;;;;7.13;4.00;;;;;;;11.04;100.00;100923.06;5041028;28;20049;-78
2022/05/25 02:26:49;;;;;;;10.60;3.85;;;;;;;11.03;100.00;100927.00;5048044;28;20083;-79
2022/05/25 02:29:19;;;;;;;10.70;3.30;;;;;;;11.02;100.00;100930.16;5034553;28;20573;-77
2022/05/25 02:31:52;;;;;;;10.40;3.63;;;;;;;10.97;100.00;100934.13;5040136;28;20597;-78
2022/05/25 02:34:21;;;;;;;7.90;3.50;;;;;;;10.95;100.00;100922.66;5034252;28;20042;-77
2022/05/25 02:36:49;;;;;;;12.15;3.53;;;;;;;10.91;100.00;100921.88;5035170;28;20145;-79
2022/05/25 02:39:16;;;;;;;8.32;3.38;;;;;;;10.92;100.00;100925.41;5043643;28;20049;-78
2022/05/25 02:41:48;;;;;;;10.45;3.67;;;;;;;10.89;100.00;100920.66;5044381;28;20128;-78
2022/05/25 02:44:15;;;;;;;8.52;3.80;;;;;;;10.89;100.00;100920.66;5038448;28;20044;-78
2022/05/25 02:46:41;;;;;;;7.30;3.17;;;;;;;10.90;100.00;100933.34;5044373;28;20572;-78
2022/05/25 02:49:09;;;;;;;9.38;3.08;;;;;;;10.89;100.00;100942.81;5031200;28;20107;-78
2022/05/25 02:51:35;;;;;;;8.60;3.25;;;;;;;10.85;100.00;100931.75;5029268;28;20137;-79
2022/05/25 02:54:03;;;;;;;10.10;3.60;;;;;;;10.77;100.00;100930.16;5041818;28;20413;-77
2022/05/25 02:56:29;;;;;;;13.70;4.10;;;;;;;10.76;100.00;100930.56;5042580;28;20147;-79
2022/05/25 02:58:56;;;;;;;8.13;3.25;;;;;;;10.78;100.00;100937.28;5046336;28;20123;-77
2022/05/25 03:01:23;;;;;;;9.55;3.58;;;;;;;10.76;100.00;100938.88;5041021;28;20493;-77
2022/05/25 03:03:49;;;;;;;8.77;3.85;;;;;;;10.71;100.00;100942.81;5037463;28;20125;-79
2022/05/25 03:06:18;;;;;;;9.15;3.60;;;;;;;10.68;100.00;100946.34;5043242;28;20045;-77
2022/05/25 03:08:44;;;;;;;11.18;3.67;;;;;;;10.66;100.00;100943.16;5037929;28;20046;-78
2022/05/25 03:11:11;;;;;;;7.55;3.30;;;;;;;10.67;100.00;100943.97;5037520;28;20057;-78
2022/05/25 03:13:38;;;;;;;8.43;3.65;;;;;;;10.65;100.00;100949.09;5038970;28;20421;-78
2022/05/25 03:16:07;;;;;;;6.50;3.05;;;;;;;10.60;100.00;100947.53;5036814;28;20052;-78
2022/05/25 03:18:35;;;;;;;10.10;3.75;;;;;;;10.59;100.00;100947.91;5040506;28;20560;-78
2022/05/25 03:21:01;;;;;;;10.85;3.65;;;;;;;10.57;100.00;100947.50;5046265;28;20152;-78
2022/05/25 03:23:28;;;;;;;12.70;3.60;;;;;;;10.55;100.00;100956.19;5042912;28;20103;-79
2022/05/25 03:25:54;;;;;;;12.80;3.70;;;;;;;10.51;100.00;100955.41;5031192;28;20052;-78
2022/05/25 03:28:21;;;;;;;9.15;4.00;;;;;;;10.47;100.00;100963.69;5043852;28;20164;-77
2022/05/25 03:30:48;;;;;;;9.32;3.80;;;;;;;10.48;100.00;100961.72;5047472;28;20766;-78
2022/05/25 03:33:15;;;;;;;9.68;3.95;;;;;;;10.49;100.00;100960.53;5031953;28;20131;-78
2022/05/25 03:35:43;;;;;;;8.43;3.80;;;;;;;10.47;100.00;100955.38;5029020;28;20050;-78
2022/05/25 03:38:09;;;;;;;14.77;3.88;;;;;;;10.46;100.00;100967.63;5039689;28;20053;-78
2022/05/25 03:40:38;;;;;;;8.40;4.00;;;;;;;10.48;100.00;100970.81;5038147;28;20591;-79
2022/05/25 03:43:06;;;;;;;11.48;4.20;;;;;;;10.48;100.00;100964.47;5041761;28;20143;-79
2022/05/25 03:45:34;;;;;;;10.10;3.97;;;;;;;10.49;100.00;100966.06;5041923;28;20779;-78
2022/05/25 03:48:00;;;;;;;16.65;4.40;;;;;;;10.45;100.00;100955.00;5041908;28;20053;-79
2022/05/25 03:50:27;;;;;;;10.43;4.10;;;;;;;10.46;100.00;100964.88;5033488;28;20075;-78
2022/05/25 03:52:53;;;;;;;10.52;4.28;;;;;;;10.48;100.00;100972.78;5039700;28;20429;-78
2022/05/25 03:55:20;;;;;;;11.57;4.63;;;;;;;10.49;100.00;100979.88;5049338;28;20136;-79
2022/05/25 03:57:46;;;;;;;8.43;3.85;;;;;;;10.47;100.00;100976.72;5036471;28;20676;-78
2022/05/25 04:00:13;;;;;;;12.45;4.72;;;;;;;10.47;100.00;100977.50;5047871;28;20059;-78
2022/05/25 04:02:39;;;;;;;8.70;4.13;;;;;;;10.49;100.00;100979.88;5041866;28;20056;-78
2022/05/25 04:05:09;;;;;;;10.70;4.28;;;;;;;10.49;100.00;100980.69;5043569;28;20050;-78
2022/05/25 04:07:44;;;;;;;11.70;4.38;;;;;;;10.51;100.00;100983.06;5033247;28;20056;-78
2022/05/25 04:10:14;;;;;;;8.40;3.70;;;;;;;10.57;100.00;100986.25;5035122;28;20159;-78
2022/05/25 04:12:42;;;;;;;14.38;4.50;;;;;;;10.55;100.00;100983.88;5049803;28;20049;-78
2022/05/25 04:15:12;;;;;;;9.13;3.80;;;;;;;10.52;100.00;100987.41;5044803;28;20084;-78
2022/05/25 04:17:38;;;;;;;13.75;5.55;;;;;;;10.62;100.00;100983.88;5041869;28;20055;-78
2022/05/25 04:20:06;;;;;;;13.38;4.53;;;;;;;10.67;100.00;100982.72;5042580;28;20529;-78
2022/05/25 04:22:33;;;;;;;13.80;5.38;;;;;;;10.71;100.00;100978.78;5037040;28;20136;-77
2022/05/25 04:24:59;;;;;;;13.80;5.15;;;;;;;10.79;100.00;100991.44;5032963;28;20045;-77
2022/05/25 04:27:26;;;;;;;14.60;5.03;;;;;;;10.85;100.00;100987.09;5044588;28;20059;-79
2022/05/25 04:29:53;;;;;;;11.82;4.90;;;;;;;10.93;100.00;100983.16;5041026;28;20072;-77
2022/05/25 04:32:20;;;;;;;21.02;5.63;;;;;;;10.96;100.00;100987.91;5031928;28;20513;-79
2022/05/25 04:34:46;;;;;;;15.63;5.47;;;;;;;11.05;100.00;100993.88;5032008;28;20060;-78
2022/05/25 04:39:58;;;;;;;14.18;4.30;;;;;;;11.25;100.00;100994.28;5042718;28;20148;-79
2022/05/25 04:42:29;;;;;;;14.30;5.32;;;;;;;11.37;100.00;101002.22;5040668;28;20084;-77
2022/05/25 04:45:03;;;;;;;15.82;5.43;;;;;;;11.36;100.00;100995.06;5045735;28;20509;-79
2022/05/25 04:47:32;;;;;;;21.17;7.35;;;;;;;11.51;100.00;101008.53;5037393;28;20054;-77
2022/05/25 04:49:59;;;;;;;10.68;3.83;;;;;;;11.56;100.00;101010.91;5051518;28;20526;-78
2022/05/25 04:52:25;;;;;;;14.32;4.13;;;;;;;11.67;100.00;101011.72;5038822;28;20466;-78
2022/05/25 04:54:52;;;;;;;19.25;6.35;;;;;;;11.78;100.00;101004.16;5045981;28;20059;-78
2022/05/25 04:57:19;;;;;;;14.15;5.55;;;;;;;11.88;100.00;101022.00;5033874;28;20053;-79
2022/05/25 05:00:00;;;;;;;8.30;2.80;;;;;;;11.96;100.00;101023.56;5042953;28;20053;-79
2022/05/25 05:02:28;;;;;;;15.38;5.35;;;;;;;12.06;100.00;101028.28;5043173;28;20064;-78
2022/05/25 05:04:56;;;;;;;8.75;3.63;;;;;;;12.04;100.00;101025.91;5042560;28;20859;-78
2022/05/25 05:07:34;;;;;;;3.35;1.73;;;;;;;12.14;100.00;101032.63;5047104;28;20140;-79
2022/05/25 05:10:01;;;;;;;8.15;3.55;;;;;;;12.23;100.00;101028.25;5035854;28;20049;-81
2022/05/25 05:12:28;;;;;;;10.13;3.50;;;;;;;12.34;100.00;101036.53;5045592;28;20049;-78
2022/05/25 05:14:57;;;;;;;12.80;5.47;;;;;;;12.43;100.00;101043.22;5041581;28;20060;-79
2022/05/25 05:17:24;;;;;;;19.50;4.03;;;;;;;12.53;100.00;101034.06;5045528;28;20041;-78
2022/05/25 05:19:51;;;;;;;15.95;6.45;;;;;;;12.70;100.00;101040.75;5032718;28;20084;-76
2022/05/25 05:22:18;;;;;;;13.48;5.07;;;;;;;12.69;100.00;101044.75;5041221;28;20068;-76
2022/05/25 05:24:44;;;;;;;20.02;6.72;;;;;;;12.70;100.00;101035.22;5038164;28;20160;-78
2022/05/25 05:27:11;;;;;;;13.30;5.47;;;;;;;12.62;100.00;101041.97;5046015;28;20547;-79
2022/05/25 05:29:38;;;;;;;8.80;3.05;;;;;;;12.66;100.00;101042.78;5036943;28;20493;-79
2022/05/25 05:32:05;;;;;;;13.88;5.85;;;;;;;12.65;100.00;101028.09;5034901;28;20060;-79
2022/05/25 05:34:31;;;;;;;13.38;5.68;;;;;;;12.74;100.00;101041.53;5041445;28;20064;-82
2022/05/25 05:37:05;;;;;;;15.80;5.30;;;;;;;12.77;100.00;101041.53;5032588;28;20085;-78
2022/05/25 05:39:39;;;;;;;19.92;6.78;;;;;;;12.88;100.00;101042.25;5040928;28;20049;-79
2022/05/25 05:42:09;;;;;;;14.60;3.15;;;;;;;12.90;100.00;101039.84;5039454;28;20068;-78
2022/05/25 05:44:40;;;;;;;8.57;3.28;;;;;;;12.94;100.00;101042.63;5041148;28;20055;-79
2022/05/25 05:47:11;;;;;;;4.20;2.53;;;;;;;12.96;100.00;101045.75;5047436;28;20131;-78
2022/05/25 05:49:39;;;;;;;11.05;4.93;;;;;;;13.13;100.00;101041.34;5042206;28;20049;-80
2022/05/25 05:52:07;;;;;;;17.67;5.82;;;;;;;13.13;100.00;101038.56;5048089;28;20057;-80
2022/05/25 05:54:33;;;;;;;17.63;5.82;;;;;;;13.22;100.00;101050.81;5050069;28;20125;-79
2022/05/25 05:57:00;;;;;;;15.63;6.35;;;;;;;13.35;100.00;101049.13;5049834;28;20072;-81
2022/05/25 05:59:27;;;;;;;12.05;3.67;;;;;;;13.37;100.00;101043.16;5037365;28;20121;-78
2022/05/25 06:01:54;;;;;;;12.43;5.32;;;;;;;13.38;100.00;101042.75;5044191;28;20142;-79
2022/05/25 06:04:22;;;;;;;18.85;5.80;;;;;;;13.47;100.00;101050.63;5047007;28;20059;-81
2022/05/25 06:06:49;;;;;;;7.95;2.92;;;;;;;13.58;100.00;101052.13;5037399;28;20542;-80
2022/05/25 06:09:16;;;;;;;14.75;5.63;;;;;;;13.66;100.00;101059.22;5038470;28;20049;-79
2022/05/25 06:11:43;;;;;;;22.55;5.53;;;;;;;13.80;100.00;101061.88;5042377;28;20068;-78
2022/05/25 06:14:10;;;;;;;14.85;5.05;;;;;;;13.81;100.00;101062.66;5043571;28;20132;-80
2022/05/25 06:19:25;;;;;;;14.45;4.60;;;;;;;13.81;100.00;101063.47;5035034;28;20087;-83
2022/05/25 06:22:00;;;;;;;7.07;2.55;;;;;;;13.85;100.00;101072.56;5042144;28;20107;-80
2022/05/25 06:24:29;;;;;;;4.40;2.13;;;;;;;13.85;100.00;101077.31;5041038;28;20056;-72
2022/05/25 06:26:56;;;;;;;8.00;2.75;;;;;;;13.98;100.00;101079.22;5036146;28;20057;-75
2022/05/25 06:29:22;;;;;;;12.60;4.60;;;;;;;14.08;100.00;101069.19;5042640;28;20083;-75
2022/05/25 06:31:49;;;;;;;10.27;3.63;;;;;;;14.12;100.00;101062.38;5029268;28;20137;-75
2022/05/25 06:34:17;;;;;;;14.73;4.68;;;;;;;14.22;100.00;101075.44;5029427;28;20704;-76
2022/05/25 06:36:47;;;;;;;11.38;3.42;;;;;;;14.26;100.00;101078.16;5033704;28;20140;-77
2022/05/25 06:39:14;;;;;;;3.60;1.35;;;;;;;14.36;100.00;101080.84;5043423;28;20088;-75
2022/05/25 06:41:40;;;;;;;5.63;1.70;;;;;;;14.34;100.00;101079.69;5035620;28;20055;-75
2022/05/25 06:44:07;;;;;;;5.60;1.08;;;;;;;14.37;100.00;101082.41;5041461;28;20044;-75
2022/05/25 06:46:34;;;;;;;15.50;4.60;;;;;;;14.58;100.00;101073.81;5044805;28;20083;-78
2022/05/25 06:49:00;;;;;;;5.00;1.85;;;;;;;14.55;100.00;101074.63;5044794;28;20425;-75
2022/05/25 06:51:33;;;;;;;14.88;4.32;;;;;;;14.73;100.00;101074.44;5037379;28;20590;-75
2022/05/25 06:54:06;;;;;;;3.10;1.70;;;;;;;14.76;100.00;101077.19;5043394;28;20403;-76
2022/05/25 06:56:33;;;;;;;9.60;3.08;;;;;;;14.82;100.00;101075.50;5041967;28;20049;-75
2022/05/25 06:59:00;;;;;;;6.43;1.70;;;;;;;14.85;100.00;101079.47;5037856;28;20060;-75
2022/05/25 07:01:27;;;;;;;3.70;1.75;;;;;;;14.80;100.00;101077.94;5041580;28;20106;-76
2022/05/25 07:03:54;;;;;;;5.07;2.10;;;;;;;14.93;100.00;101092.91;5042892;28;20056;-75
2022/05/25 07:06:22;;;;;;;5.43;1.75;;;;;;;14.95;100.00;101078.53;5036547;28;20056;-75
2022/05/25 07:08:49;;;;;;;13.15;4.05;;;;;;;15.17;100.00;101074.25;5040031;28;20057;-74
2022/05/25 07:11:17;;;;;;;5.28;2.15;;;;;;;15.17;100.00;101079.81;5032681;28;20119;-74
2022/05/25 07:13:43;;;;;;;8.77;2.50;;;;;;;15.12;98.27;101077.50;5038039;28;20053;-75
2022/05/25 07:16:13;;;;;;;10.48;2.17;;;;;;;15.28;99.81;101083.25;5028405;28;20080;-76
2022/05/25 07:18:43;;;;;;;4.18;1.55;;;;;;;15.33;96.26;101080.75;5027477;28;20061;-75
2022/05/25 07:21:16;;;;;;;3.70;1.23;;;;;;;15.32;93.74;101090.34;5029483;28;20072;-75
2022/05/25 07:23:46;;;;;;;7.47;2.97;;;;;;;15.43;93.88;101093.03;5036240;28;20140;-75
2022/05/25 07:26:13;;;;;;;5.60;2.25;;;;;;;15.57;93.98;101109.53;5037116;28;20570;-74
2022/05/25 07:28:40;;;;;;;6.53;2.30;;;;;;;15.57;92.55;101097.56;5033743;28;20081;-74
2022/05/25 07:31:14;;;;;;;5.78;1.67;;;;;;;15.57;93.72;101103.16;5029772;28;20471;-75
2022/05/25 07:33:44;;;;;;;6.28;2.42;;;;;;;15.56;93.05;101105.19;5037547;28;20049;-74
2022/05/25 07:36:11;;;;;;;4.45;1.60;;;;;;;15.76;92.56;101092.06;5027061;28;20058;-75
2022/05/25 07:38:44;;;;;;;7.15;1.77;;;;;;;15.77;92.53;101096.47;5033021;28;20129;-75
2022/05/25 07:41:11;;;;;;;5.55;2.20;;;;;;;15.76;91.07;101106.03;5044180;28;20601;-77
2022/05/25 07:43:41;;;;;;;5.47;1.83;;;;;;;15.73;90.30;101101.31;5040872;28;20155;-75
2022/05/25 07:46:07;;;;;;;5.88;2.47;;;;;;;15.67;87.89;101124.53;5046265;28;20525;-73
2022/05/25 07:48:36;;;;;;;3.83;1.20;;;;;;;15.78;88.27;101111.19;5039004;28;20049;-76
2022/05/25 07:51:04;;;;;;;7.75;2.05;;;;;;;15.83;89.20;101110.72;5041232;28;20475;-75
2022/05/25 07:56:16;;;;;;;6.93;1.87;;;;;;;15.95;87.72;101119.28;5043662;28;20140;-77
2022/05/25 07:58:42;;;;;;;3.50;1.50;;;;;;;16.02;84.23;101107.19;5034258;28;20076;-75
2022/05/25 08:01:17;;;;;;;4.68;1.42;;;;;;;16.07;84.86;101104.72;5038087;28;20064;-76
2022/05/25 08:06:32;;;;;;;2.10;0.98;;;;;;;16.22;81.32;101108.84;5040466;28;20585;-77
2022/05/25 08:08:58;;;;;;;9.55;2.63;;;;;;;16.32;81.47;101107.84;5042206;28;20099;-77
2022/05/25 08:11:25;;;;;;;4.90;1.73;;;;;;;16.38;80.69;101108.16;5038242;28;20695;-76
2022/05/25 08:13:55;;;;;;;3.22;1.20;;;;;;;16.31;80.84;101120.25;5029000;28;20141;-76
2022/05/25 08:16:21;;;;;;;8.60;2.42;;;;;;;16.42;82.28;101104.09;5037993;28;20131;-75
2022/05/25 08:18:48;;;;;;;2.78;1.00;;;;;;;16.46;81.36;101106.81;5037234;28;20430;-70
2022/05/25 08:21:16;;;;;;;7.00;2.00;;;;;;;16.71;81.95;101105.13;5040614;28;20077;-71
2022/05/25 08:24:03;;;;;;;6.28;1.55;;;;;;;16.58;78.25;101115.38;5034558;28;20058;-74
2022/05/25 08:26:29;;;;;;;4.18;1.92;;;;;;;16.61;75.99;101111.72;5041181;28;20052;-75
2022/05/25 08:28:55;;;;;;;3.55;1.15;;;;;;;16.75;76.04;101116.25;5040949;28;20084;-74
2022/05/25 08:31:22;;;;;;;3.33;1.20;;;;;;;16.87;73.72;101124.00;5039313;28;20061;-75
2022/05/25 08:33:49;;;;;;;2.80;0.75;;;;;;;16.95;73.81;101120.63;5042252;28;20060;-74
2022/05/25 08:36:15;;;;;;;3.13;0.70;;;;;;;17.02;73.97;101102.91;5039427;28;20119;-73
2022/05/25 08:38:42;;;;;;;5.10;1.40;;;;;;;17.06;70.12;101103.59;5042797;28;20040;-73
2022/05/25 08:41:10;;;;;;;1.95;0.65;;;;;;;17.13;66.32;101106.25;5040556;28;20401;-74
2022/05/25 08:43:46;;;;;;;2.13;0.93;;;;;;;17.16;65.51;101100.59;5043114;28;20063;-74
2022/05/25 08:46:18;;;;;;;5.53;1.27;;;;;;;17.07;64.35;101102.38;5043276;28;20894;-73
2022/05/25 08:48:45;;;;;;;2.38;0.95;;;;;;;17.33;65.26;101112.59;5042105;28;20053;-73
2022/05/25 08:51:32;;;;;;;5.50;1.52;;;;;;;17.32;66.25;101111.78;5045780;28;20060;-73
2022/05/25 08:54:00;;;;;;;2.38;0.90;;;;;;;17.28;63.95;101113.13;5048349;28;20059;-72
2022/05/25 08:56:35;;;;;;;5.97;1.98;;;;;;;17.32;62.46;101147.38;5044197;28;20080;-73
2022/05/25 08:59:17;;;;;;;5.90;1.40;;;;;;;17.14;61.23;101132.97;5043751;28;20529;-73
2022/05/25 09:01:50;;;;;;;6.32;1.50;;;;;;;17.30;61.87;101113.47;5031985;28;20148;-73
2022/05/25 09:04:53;;;;;;;1.42;0.90;;;;;;;17.67;64.86;101127.81;5046044;28;20114;-74
2022/05/25 09:07:49;;;;;;;2.83;1.45;;;;;;;17.48;61.93;101116.66;5047597;28;20129;-77
2022/05/25 09:10:17;;;;;;;1.10;0.47;;;;;;;17.81;62.17;101123.88;5032370;28;20482;-79
2022/05/25 09:12:52;;;;;;;7.25;1.35;;;;;;;17.74;61.16;101115.66;5031534;28;20640;-75
2022/05/25 09:15:26;;;;;;;1.70;1.00;;;;;;;18.03;62.19;101113.75;5047870;28;20056;-76
2022/05/25 09:18:13;;;;;;;2.97;0.57;;;;;;;18.01;59.98;101124.59;5045817;28;20077;-75
2022/05/25 09:20:45;;;;;;;4.55;1.10;;;;;;;18.10;59.99;101126.75;5038321;28;20073;-75
2022/05/25 09:23:13;;;;;;;1.83;0.90;;;;;;;18.13;59.31;101121.09;5030645;28;20057;-75
2022/05/25 09:25:41;;;;;;;0.90;0.68;;;;;;;18.27;60.52;101111.53;5030741;28;20053;-77
2022/05/25 09:28:14;;;;;;;3.10;0.85;;;;;;;18.23;57.72;101103.22;5032453;28;20481;-75
2022/05/25 09:30:43;;;;;;;2.17;1.10;;;;;;;18.17;58.28;101138.59;5035551;28;20049;-76
2022/05/25 09:33:18;;;;;;;3.67;1.20;;;;;;;18.12;58.05;101125.09;5031872;28;20135;-75
2022/05/25 09:35:50;;;;;;;1.65;1.02;;;;;;;18.30;56.89;101124.66;5033503;28;20048;-76
2022/05/25 09:38:32;;;;;;;3.22;0.80;;;;;;;18.45;58.73;101121.06;5040187;28;20055;-73
2022/05/25 09:41:09;;;;;;;4.00;0.70;;;;;;;18.72;58.35;101118.69;5034858;28;20053;-75
2022/05/25 09:43:35;;;;;;;3.22;0.90;;;;;;;18.79;56.75;101124.09;5041956;28;20526;-73
2022/05/25 09:46:10;;;;;;;4.10;1.70;;;;;;;18.70;56.11;101121.16;5043325;28;20048;-74
2022/05/25 09:48:48;;;;;;;0.98;0.63;;;;;;;18.58;54.30;101129.50;5043993;28;20048;-75
2022/05/25 09:51:33;;;;;;;1.00;0.47;;;;;;;18.64;54.71;101122.94;5028023;28;20061;-76
2022/05/25 09:54:05;;;;;;;4.85;0.90;;;;;;;18.84;55.67;101132.00;5039292;28;20092;-75
2022/05/25 09:56:38;;;;;;;3.35;1.33;;;;;;;19.01;53.80;101121.47;5045872;28;20048;-75
2022/05/25 09:59:10;;;;;;;0.63;0.40;;;;;;;19.03;52.46;101111.38;5041493;28;20422;-75
2022/05/25 10:01:43;;;;;;;5.72;1.17;;;;;;;19.24;53.58;101121.19;5030058;28;20059;-76
2022/05/25 10:04:51;;;;;;;2.42;0.98;;;;;;;19.44;53.84;101121.81;5035066;28;20044;-75
2022/05/25 10:07:30;;;;;;;0.75;0.55;;;;;;;19.22;52.18;101118.84;5041649;28;20407;-75
2022/05/25 10:10:07;;;;;;;5.40;1.00;;;;;;;19.23;52.09;101114.78;5043592;28;20066;-75
2022/05/25 10:12:42;;;;;;;3.53;1.38;;;;;;;19.36;52.70;101114.84;5048904;28;20136;-75
2022/05/25 10:15:15;;;;;;;1.80;0.75;;;;;;;19.34;53.53;101126.50;5049275;28;20049;-75
2022/05/25 10:17:46;;;;;;;2.25;0.77;;;;;;;19.37;52.58;101108.78;5043114;28;20417;-76
2022/05/25 10:20:24;;;;;;;1.13;0.65;;;;;;;19.21;49.44;101120.09;5033696;28;20492;-76
2022/05/25 10:23:12;;;;;;;2.55;1.25;;;;;;;18.87;50.59;101150.72;5021817;28;24795;-74
2022/05/25 10:25:47;;;;;;;5.35;1.52;;;;;;;19.12;50.11;101119.94;5031361;28;20041;-75
2022/05/25 10:28:27;;;;;;;2.97;1.33;;;;;;;19.06;49.98;101121.72;5030732;28;20571;-74
2022/05/25 10:36:55;;;;;;;5.00;1.23;;;;;;;19.42;50.11;101122.25;5037663;28;20610;-76
2022/05/25 10:39:24;;;;;;;4.47;1.60;;;;;;;19.75;50.74;101109.56;5032108;28;20156;-75
2022/05/25 10:42:14;;;;;;;1.92;0.90;;;;;;;19.83;48.71;101099.69;5030266;28;20046;-75
2022/05/25 10:44:58;;;;;;;7.70;1.70;;;;;;;19.63;47.75;101126.41;5023862;28;20056;-75
2022/05/25 10:47:57;;;;;;;5.55;1.60;;;;;;;19.96;48.25;101116.50;5031225;28;20053;-77
2022/05/25 10:50:26;;;;;;;4.55;1.83;;;;;;;19.86;47.31;101129.66;5019468;28;20049;-77
2022/05/25 10:52:58;;;;;;;4.05;1.40;;;;;;;20.06;47.29;101116.16;5017487;28;20108;-74
2022/05/25 10:55:34;;;;;;;0.52;0.52;;;;;;;19.92;45.88;101138.31;5021185;28;22111;-75
2022/05/25 10:58:24;;;;;;;3.22;1.13;;;;;;;20.23;46.64;101122.44;5020891;28;20075;-77
2022/05/25 11:01:15;;;;;;;2.47;0.68;;;;;;;19.97;45.95;101123.69;5027185;28;20076;-77
2022/05/25 11:03:50;;;;;;;2.05;0.80;;;;;;;19.98;46.56;101130.91;5021654;28;20045;-76
2022/05/25 11:06:42;;;;;;;2.90;0.50;;;;;;;20.05;46.22;101127.84;5016778;28;20509;-75
2022/05/25 11:09:27;;;;;;;2.25;0.70;;;;;;;20.02;46.46;101123.91;5021335;28;20130;-77
2022/05/25 11:11:56;;;;;;;1.95;0.73;;;;;;;20.20;46.47;101126.16;5018048;28;20057;-77
2022/05/25 11:14:47;;;;;;;5.47;1.08;;;;;;;20.55;48.06;101116.47;5016601;28;20064;-77
2022/05/25 11:17:50;;;;;;;5.18;1.55;;;;;;;20.68;44.67;101130.50;5018892;28;20045;-76
2022/05/25 11:20:39;;;;;;;1.70;1.10;;;;;;;20.38;43.96;101125.56;4988897;28;20156;-74
2022/05/25 11:23:09;;;;;;;1.65;0.80;;;;;;;19.69;44.68;101128.22;5017719;28;20391;-76
2022/05/25 11:25:54;;;;;;;0.30;0.30;;;;;;;19.58;46.40;101119.31;5016771;28;20461;-77
2022/05/25 11:28:42;;;;;;;3.20;0.95;;;;;;;19.66;46.73;101122.72;5035004;28;20068;-76
2022/05/25 11:31:17;;;;;;;1.55;0.80;;;;;;;19.55;47.78;101131.47;5040027;28;20577;-76
2022/05/25 11:34:08;;;;;;;2.22;1.17;;;;;;;19.59;47.01;101125.75;5041418;28;20096;-77
2022/05/25 11:37:17;;;;;;;2.33;0.73;;;;;;;20.25;46.95;101128.41;5033542;28;20052;-72
2022/05/25 11:40:13;;;;;;;5.22;1.15;;;;;;;20.65;44.50;101106.09;5037804;28;20562;-72
2022/05/25 11:43:02;;;;;;;5.07;1.20;;;;;;;21.28;44.87;101121.41;5029382;28;20145;-72
2022/05/25 11:45:44;;;;;;;3.67;0.90;;;;;;;21.41;43.26;101104.41;5031010;28;20774;-74
2022/05/25 11:49:05;;;;;;;0.50;0.50;;;;;;;21.30;42.92;101106.88;5023231;28;20076;-75
2022/05/25 11:51:55;;;;;;;3.30;0.77;;;;;;;21.47;41.24;101103.38;5031757;28;20475;-75
2022/05/25 11:54:59;;;;;;;3.17;0.70;;;;;;;21.34;40.71;101107.50;5045168;28;20132;-75
2022/05/25 11:57:59;;;;;;;1.25;0.45;;;;;;;21.52;40.77;101101.97;5037140;28;20144;-70
2022/05/25 12:00:45;;;;;;;3.25;1.00;;;;;;;21.67;41.62;101097.34;5029590;28;20138;-74
2022/05/25 12:03:21;;;;;;;4.03;0.77;;;;;;;21.19;39.17;101118.53;5032864;28;20053;-74
2022/05/25 12:05:53;;;;;;;3.55;1.00;;;;;;;21.01;40.15;101100.75;5036767;28;20053;-73
2022/05/25 12:08:31;;;;;;;0.47;0.38;;;;;;;20.73;39.45;101099.78;5042655;28;20054;-72